High Forest, Minnesota
Current Conditions -  °F | °C
As of 3:54 AM on Thursday 27 Nov 2014 (Local Time) from KRST Reporting Station
Clear Clear  
Wind Chill: -11°   Ceiling: Unl
Heat Index:   Visibility: 10mi
Dew Point: -2°   Wind: 14mph
Humidity: 69%   Direction: 340°NNW
Pressure: 30.37"   Gusts: NA
Location:  43.8884°N, 92.383°W
Report Text: KRST 270954Z AUTO 34012KT 10SM CLR M14/M19 A3037 RMK AO2 SLP310 T11441189
Loading
Personal Weather Stations






























Interactive Weather Map New forecast layout! Learn more

10-Day Weather Forecast

Advertisements
Track Severe Weather on mobile